createdAt,value
2019-02-26T00:00:34.042Z,1031.67
2019-02-26T00:01:34.036Z,1031.57
2019-02-26T00:02:34.018Z,1031.64
2019-02-26T00:03:35.427Z,1031.58
2019-02-26T00:04:35.066Z,1031.64
2019-02-26T00:05:33.985Z,1031.60
2019-02-26T00:06:33.976Z,1031.58
2019-02-26T00:07:33.965Z,1031.61
2019-02-26T00:08:33.953Z,1031.61
2019-02-26T00:09:35.300Z,1031.61
2019-02-26T00:10:36.267Z,1031.56
2019-02-26T00:11:35.822Z,1031.56
2019-02-26T00:12:35.546Z,1031.51
2019-02-26T00:13:34.609Z,1031.52
2019-02-26T00:14:33.909Z,1031.49
2019-02-26T00:15:35.869Z,1031.48
2019-02-26T00:16:37.686Z,1031.49
2019-02-26T00:17:38.573Z,1031.43
2019-02-26T00:18:34.842Z,1031.48
2019-02-26T00:19:33.862Z,1031.57
2019-02-26T00:20:36.402Z,1031.59
2019-02-26T00:21:33.809Z,1031.50
2019-02-26T00:22:34.472Z,1031.52
2019-02-26T00:23:33.795Z,1031.48
2019-02-26T00:24:35.331Z,1031.49
2019-02-26T00:25:33.795Z,1031.46
2019-02-26T00:26:34.600Z,1031.36
2019-02-26T00:27:35.142Z,1031.34
2019-02-26T00:28:34.168Z,1031.32
2019-02-26T00:29:33.724Z,1031.32
2019-02-26T00:30:35.605Z,1031.26
2019-02-26T00:31:33.700Z,1031.35
2019-02-26T00:32:33.999Z,1031.31
2019-02-26T00:33:33.678Z,1031.39
2019-02-26T00:34:34.679Z,1031.26
2019-02-26T00:35:33.682Z,1031.33
2019-02-26T00:36:35.926Z,1031.32
2019-02-26T00:37:33.634Z,1031.32
2019-02-26T00:38:35.395Z,1031.28
2019-02-26T00:39:33.620Z,1031.33
2019-02-26T00:40:34.917Z,1031.30
2019-02-26T00:41:35.697Z,1031.33
2019-02-26T00:42:34.255Z,1031.24
2019-02-26T00:43:34.645Z,1031.29
2019-02-26T00:44:35.279Z,1031.19
2019-02-26T00:45:34.070Z,1031.20
2019-02-26T00:46:34.767Z,1031.18
2019-02-26T00:47:34.447Z,1031.18
2019-02-26T00:48:34.166Z,1031.19
2019-02-26T00:49:33.503Z,1031.15
2019-02-26T00:50:35.702Z,1031.16
2019-02-26T00:51:33.523Z,1031.14
2019-02-26T00:52:34.818Z,1031.16
2019-02-26T00:53:33.458Z,1031.18
2019-02-26T00:54:34.371Z,1031.12
2019-02-26T00:55:34.715Z,1031.15
2019-02-26T00:56:33.995Z,1031.13
2019-02-26T00:57:35.405Z,1031.06
2019-02-26T00:58:37.007Z,1031.03
2019-02-26T00:59:36.374Z,1031.02
2019-02-26T01:00:35.361Z,1031.08
2019-02-26T01:01:33.374Z,1031.12
2019-02-26T01:02:34.080Z,1031.17
2019-02-26T01:03:33.355Z,1031.14
2019-02-26T01:04:33.338Z,1031.09
2019-02-26T01:05:34.119Z,1031.06
2019-02-26T01:06:33.573Z,1031.07
2019-02-26T01:07:33.308Z,1031.06
2019-02-26T01:08:33.321Z,1031.07
2019-02-26T01:09:34.072Z,1031.05
2019-02-26T01:10:34.645Z,1031.09
2019-02-26T01:11:33.265Z,1031.06
2019-02-26T01:12:35.261Z,1031.04
2019-02-26T01:13:33.267Z,1031.08
2019-02-26T01:14:33.232Z,1031.11
2019-02-26T01:15:33.222Z,1031.12
2019-02-26T01:16:33.208Z,1031.11
2019-02-26T01:17:33.468Z,1031.09
2019-02-26T01:18:33.205Z,1031.10
2019-02-26T01:19:34.188Z,1031.07
2019-02-26T01:20:33.170Z,1031.04
2019-02-26T01:21:34.149Z,1031.02
2019-02-26T01:22:35.273Z,1030.99
2019-02-26T01:23:33.152Z,1031.06
2019-02-26T01:24:33.141Z,1031.01
2019-02-26T01:25:33.111Z,1031.02
2019-02-26T01:26:33.098Z,1030.97
2019-02-26T01:27:33.088Z,1030.94
2019-02-26T01:28:33.103Z,1030.96
2019-02-26T01:29:33.066Z,1030.92
2019-02-26T01:30:35.641Z,1030.92
2019-02-26T01:31:34.021Z,1030.94
2019-02-26T01:32:33.039Z,1030.97
2019-02-26T01:33:34.301Z,1031.00
2019-02-26T01:34:33.032Z,1030.98
2019-02-26T01:35:35.036Z,1031.01
2019-02-26T01:36:32.988Z,1031.08
2019-02-26T01:37:55.679Z,1030.99
2019-02-26T01:38:32.968Z,1031.08
2019-02-26T01:39:32.984Z,1031.13
2019-02-26T01:40:32.947Z,1031.15
2019-02-26T01:41:32.937Z,1031.09
2019-02-26T01:42:32.923Z,1031.08
2019-02-26T01:43:32.913Z,1031.12
2019-02-26T01:44:34.960Z,1031.13
2019-02-26T01:45:32.914Z,1031.16
2019-02-26T01:46:34.416Z,1031.14
2019-02-26T01:47:32.871Z,1031.18
2019-02-26T01:48:34.407Z,1031.17
2019-02-26T01:49:32.846Z,1031.21
2019-02-26T01:50:33.829Z,1031.18
2019-02-26T01:51:32.830Z,1031.23
2019-02-26T01:52:32.814Z,1031.22
2019-02-26T01:53:32.810Z,1031.18
2019-02-26T01:54:33.414Z,1031.13
2019-02-26T01:55:32.807Z,1031.09
2019-02-26T01:56:34.051Z,1031.11
2019-02-26T01:57:32.760Z,1031.06
2019-02-26T01:58:33.640Z,1031.04
2019-02-26T01:59:34.562Z,1031.05
2019-02-26T02:00:32.752Z,1031.05
2019-02-26T02:01:32.715Z,1031.04
2019-02-26T02:02:32.705Z,1031.06
2019-02-26T02:03:32.726Z,1031.10
2019-02-26T02:04:34.208Z,1031.06
2019-02-26T02:05:32.704Z,1031.13
2019-02-26T02:06:34.821Z,1031.05
2019-02-26T02:07:32.649Z,1031.09
2019-02-26T02:08:32.640Z,1031.12
2019-02-26T02:09:32.628Z,1031.12
2019-02-26T02:10:32.625Z,1031.12
2019-02-26T02:11:33.494Z,1031.11
2019-02-26T02:12:34.445Z,1031.10
2019-02-26T02:13:33.102Z,1031.16
2019-02-26T02:14:32.578Z,1031.15
2019-02-26T02:15:32.567Z,1031.11
2019-02-26T02:16:33.584Z,1031.07
2019-02-26T02:17:33.373Z,1031.01
2019-02-26T02:18:32.538Z,1031.02
2019-02-26T02:19:32.625Z,1030.99
2019-02-26T02:20:32.514Z,1031.04
2019-02-26T02:21:33.786Z,1031.06
2019-02-26T02:22:33.106Z,1030.99
2019-02-26T02:23:32.484Z,1030.99
2019-02-26T02:24:32.472Z,1031.01
2019-02-26T02:25:33.801Z,1030.98
2019-02-26T02:26:32.450Z,1031.01
2019-02-26T02:27:33.238Z,1030.98
2019-02-26T02:28:33.692Z,1030.93
2019-02-26T02:29:32.426Z,1030.83
2019-02-26T02:30:35.533Z,1030.80
2019-02-26T02:31:34.763Z,1030.81
2019-02-26T02:32:34.503Z,1030.81
2019-02-26T02:33:34.942Z,1030.82
2019-02-26T02:34:35.956Z,1030.89
2019-02-26T02:35:32.348Z,1030.83
2019-02-26T02:36:32.341Z,1030.83
2019-02-26T02:37:32.323Z,1030.83
2019-02-26T02:38:36.528Z,1030.81
2019-02-26T02:39:32.302Z,1030.86
2019-02-26T02:40:32.303Z,1030.79
2019-02-26T02:41:32.281Z,1030.82
2019-02-26T02:42:34.719Z,1030.73
2019-02-26T02:43:32.258Z,1030.75
2019-02-26T02:44:33.138Z,1030.75
2019-02-26T02:45:32.236Z,1030.71
2019-02-26T02:46:33.793Z,1030.71
2019-02-26T02:47:35.692Z,1030.72
2019-02-26T02:48:32.203Z,1030.73
2019-02-26T02:49:33.850Z,1030.71
2019-02-26T02:50:32.181Z,1030.69
2019-02-26T02:51:34.610Z,1030.73
2019-02-26T02:52:34.788Z,1030.68
2019-02-26T02:53:32.391Z,1030.65
2019-02-26T02:54:32.138Z,1030.69
2019-02-26T02:55:32.148Z,1030.64
2019-02-26T02:56:33.397Z,1030.63
2019-02-26T02:57:34.390Z,1030.61
2019-02-26T02:58:32.093Z,1030.58
2019-02-26T02:59:33.885Z,1030.53
2019-02-26T03:00:34.352Z,1030.49
2019-02-26T03:01:32.062Z,1030.46
2019-02-26T03:02:32.059Z,1030.51
2019-02-26T03:03:32.040Z,1030.54
2019-02-26T03:04:34.703Z,1030.44
2019-02-26T03:05:34.368Z,1030.45
2019-02-26T03:06:35.146Z,1030.48
2019-02-26T03:07:31.996Z,1030.50
2019-02-26T03:08:31.986Z,1030.48
2019-02-26T03:09:37.099Z,1030.43
2019-02-26T03:10:34.603Z,1030.50
2019-02-26T03:11:36.013Z,1030.48
2019-02-26T03:12:31.941Z,1030.49
2019-02-26T03:13:31.934Z,1030.50
2019-02-26T03:14:33.796Z,1030.51
2019-02-26T03:15:35.208Z,1030.56
2019-02-26T03:16:31.902Z,1030.49
2019-02-26T03:17:31.887Z,1030.48
2019-02-26T03:18:31.875Z,1030.42
2019-02-26T03:19:32.512Z,1030.44
2019-02-26T03:20:37.265Z,1030.43
2019-02-26T03:21:32.865Z,1030.37
2019-02-26T03:22:33.370Z,1030.34
2019-02-26T03:23:33.786Z,1030.32
2019-02-26T03:24:33.845Z,1030.37
2019-02-26T03:25:31.798Z,1030.28
2019-02-26T03:26:31.810Z,1030.35
2019-02-26T03:27:34.142Z,1030.27
2019-02-26T03:28:34.914Z,1030.29
2019-02-26T03:29:32.757Z,1030.26
2019-02-26T03:30:37.942Z,1030.28
2019-02-26T03:31:35.274Z,1030.18
2019-02-26T03:32:36.078Z,1030.20
2019-02-26T03:33:31.716Z,1030.12
2019-02-26T03:34:31.715Z,1030.17
2019-02-26T03:35:31.690Z,1030.12
2019-02-26T03:36:34.233Z,1030.14
2019-02-26T03:37:34.641Z,1030.12
2019-02-26T03:38:31.656Z,1030.16
2019-02-26T03:39:31.648Z,1030.16
2019-02-26T03:40:32.957Z,1030.15
2019-02-26T03:41:31.626Z,1030.22
2019-02-26T03:42:33.481Z,1030.17
2019-02-26T03:43:34.016Z,1030.24
2019-02-26T03:44:31.593Z,1030.27
2019-02-26T03:45:31.581Z,1030.22
2019-02-26T03:46:31.593Z,1030.29
2019-02-26T03:47:31.560Z,1030.25
2019-02-26T03:48:31.548Z,1030.29
2019-02-26T03:49:31.538Z,1030.32
2019-02-26T03:50:31.529Z,1030.29
2019-02-26T03:51:31.567Z,1030.26
2019-02-26T03:52:32.225Z,1030.27
2019-02-26T03:53:33.859Z,1030.21
2019-02-26T03:54:31.488Z,1030.24
2019-02-26T03:55:33.597Z,1030.22
2019-02-26T03:56:31.460Z,1030.23
2019-02-26T03:57:31.473Z,1030.26
2019-02-26T03:58:31.438Z,1030.28
2019-02-26T03:59:31.427Z,1030.23
2019-02-26T04:00:32.415Z,1030.16
2019-02-26T04:01:31.427Z,1030.18
2019-02-26T04:02:31.396Z,1030.19
2019-02-26T04:03:32.079Z,1030.26
2019-02-26T04:04:33.652Z,1030.25
2019-02-26T04:05:31.362Z,1030.25
2019-02-26T04:06:33.249Z,1030.27
2019-02-26T04:07:33.347Z,1030.35
2019-02-26T04:08:31.332Z,1030.32
2019-02-26T04:09:31.321Z,1030.31
2019-02-26T04:10:31.321Z,1030.27
2019-02-26T04:11:31.319Z,1030.28
2019-02-26T04:12:35.991Z,1030.24
2019-02-26T04:13:32.274Z,1030.21
2019-02-26T04:14:31.267Z,1030.22
2019-02-26T04:15:35.104Z,1030.18
2019-02-26T04:16:32.382Z,1030.14
2019-02-26T04:17:33.547Z,1030.22
2019-02-26T04:18:34.813Z,1030.20
2019-02-26T04:19:31.219Z,1030.16
2019-02-26T04:20:31.200Z,1030.18
2019-02-26T04:21:31.208Z,1030.15
2019-02-26T04:22:31.186Z,1030.20
2019-02-26T04:23:33.096Z,1030.18
2019-02-26T04:24:33.379Z,1030.15
2019-02-26T04:25:33.343Z,1030.17
2019-02-26T04:26:34.458Z,1030.11
2019-02-26T04:27:33.471Z,1030.15
2019-02-26T04:28:33.524Z,1030.14
2019-02-26T04:29:35.410Z,1030.17
2019-02-26T04:30:36.614Z,1030.19
2019-02-26T04:31:32.101Z,1030.17
2019-02-26T04:32:31.079Z,1030.23
2019-02-26T04:33:32.908Z,1030.20
2019-02-26T04:34:31.048Z,1030.27
2019-02-26T04:35:31.037Z,1030.27
2019-02-26T04:36:31.027Z,1030.25
2019-02-26T04:37:32.827Z,1030.31
2019-02-26T04:38:31.258Z,1030.23
2019-02-26T04:39:30.992Z,1030.24
2019-02-26T04:40:32.839Z,1030.29
2019-02-26T04:41:32.605Z,1030.31
2019-02-26T04:42:32.687Z,1030.37
2019-02-26T04:43:33.528Z,1030.35
2019-02-26T04:44:33.409Z,1030.40
2019-02-26T04:45:30.927Z,1030.42
2019-02-26T04:46:31.644Z,1030.37
2019-02-26T04:47:33.764Z,1030.47
2019-02-26T04:48:32.506Z,1030.52
2019-02-26T04:49:33.972Z,1030.41
2019-02-26T04:50:35.327Z,1030.45
2019-02-26T04:51:30.864Z,1030.50
2019-02-26T04:52:32.369Z,1030.46
2019-02-26T04:53:31.826Z,1030.49
2019-02-26T04:54:33.107Z,1030.51
2019-02-26T04:55:34.860Z,1030.53
2019-02-26T04:56:33.518Z,1030.52
2019-02-26T04:57:30.803Z,1030.56
2019-02-26T04:58:30.828Z,1030.59
2019-02-26T04:59:32.419Z,1030.59
2019-02-26T05:00:33.899Z,1030.55
2019-02-26T05:01:31.828Z,1030.49
2019-02-26T05:02:30.749Z,1030.53
2019-02-26T05:03:30.730Z,1030.50
2019-02-26T05:04:33.797Z,1030.51
2019-02-26T05:05:34.167Z,1030.53
2019-02-26T05:06:31.695Z,1030.55
2019-02-26T05:07:32.821Z,1030.57
2019-02-26T05:08:32.088Z,1030.55
2019-02-26T05:09:32.677Z,1030.60
2019-02-26T05:10:32.315Z,1030.61
2019-02-26T05:11:32.573Z,1030.61
2019-02-26T05:12:33.776Z,1030.61
2019-02-26T05:13:32.665Z,1030.55
2019-02-26T05:14:30.687Z,1030.58
2019-02-26T05:15:33.179Z,1030.62
2019-02-26T05:16:32.658Z,1030.57
2019-02-26T05:17:33.179Z,1030.57
2019-02-26T05:18:32.617Z,1030.53
2019-02-26T05:19:30.554Z,1030.52
2019-02-26T05:20:31.463Z,1030.60
2019-02-26T05:21:32.483Z,1030.53
2019-02-26T05:22:33.158Z,1030.57
2019-02-26T05:23:33.398Z,1030.52
2019-02-26T05:24:30.499Z,1030.48
2019-02-26T05:25:31.495Z,1030.51
2019-02-26T05:26:30.576Z,1030.48
2019-02-26T05:27:30.469Z,1030.46
2019-02-26T05:28:35.401Z,1030.43
2019-02-26T05:29:31.445Z,1030.53
2019-02-26T05:30:30.435Z,1030.54
2019-02-26T05:31:32.466Z,1030.50
2019-02-26T05:32:32.749Z,1030.51
2019-02-26T05:33:31.014Z,1030.56
2019-02-26T05:34:30.417Z,1030.61
2019-02-26T05:35:30.380Z,1030.59
2019-02-26T05:36:31.736Z,1030.62
2019-02-26T05:37:32.549Z,1030.62
2019-02-26T05:38:32.467Z,1030.73
2019-02-26T05:39:30.336Z,1030.63
2019-02-26T05:40:30.325Z,1030.72
2019-02-26T05:41:30.316Z,1030.60
2019-02-26T05:42:30.310Z,1030.62
2019-02-26T05:43:33.193Z,1030.64
2019-02-26T05:44:31.156Z,1030.65
2019-02-26T05:45:34.933Z,1030.62
2019-02-26T05:46:31.258Z,1030.66
2019-02-26T05:47:30.249Z,1030.63
2019-02-26T05:48:30.239Z,1030.57
2019-02-26T05:49:33.853Z,1030.51
2019-02-26T05:50:32.098Z,1030.57
2019-02-26T05:51:32.662Z,1030.56
2019-02-26T05:52:32.891Z,1030.54
2019-02-26T05:53:30.186Z,1030.53
2019-02-26T05:54:30.192Z,1030.46
2019-02-26T05:55:30.166Z,1030.50
2019-02-26T05:56:30.154Z,1030.56
2019-02-26T05:57:32.683Z,1030.57
2019-02-26T05:58:30.130Z,1030.66
2019-02-26T05:59:30.204Z,1030.61
2019-02-26T06:00:33.135Z,1030.64
2019-02-26T06:01:30.104Z,1030.71
2019-02-26T06:02:30.093Z,1030.78
2019-02-26T06:03:30.081Z,1030.80
2019-02-26T06:04:32.085Z,1030.72
2019-02-26T06:05:30.064Z,1030.70
2019-02-26T06:08:59.861Z,1030.80
2019-02-26T06:11:08.015Z,1030.73
2019-02-26T06:12:07.914Z,1030.76
2019-02-26T06:13:19.533Z,1030.78
2019-02-26T06:20:08.075Z,1030.76
